sensor_id;sensor_type;location;lat;lon;timestamp;pressure;altitude;pressure_sealevel;temperature;humidity
10079;BME280;5078;42.544;22.966;2023-04-01T00:02:24;93055.28;;;12.91;49.62
10079;BME280;5078;42.544;22.966;2023-04-01T00:04:51;93072.66;;;12.93;49.77
10079;BME280;5078;42.544;22.966;2023-04-01T00:07:18;93073.66;;;12.92;49.77
10079;BME280;5078;42.544;22.966;2023-04-01T00:09:44;93075.75;;;12.90;50.04
10079;BME280;5078;42.544;22.966;2023-04-01T00:12:12;93078.41;;;12.90;50.29
10079;BME280;5078;42.544;22.966;2023-04-01T00:14:39;93070.84;;;12.81;50.49
10079;BME280;5078;42.544;22.966;2023-04-01T00:17:06;93078.59;;;12.89;50.78
10079;BME280;5078;42.544;22.966;2023-04-01T00:19:33;93072.47;;;12.82;51.43
10079;BME280;5078;42.544;22.966;2023-04-01T00:22:00;93030.22;;;12.40;52.32
10079;BME280;5078;42.544;22.966;2023-04-01T00:24:26;93066.81;;;12.51;53.03
10079;BME280;5078;42.544;22.966;2023-04-01T00:26:54;93059.88;;;12.44;53.67
10079;BME280;5078;42.544;22.966;2023-04-01T00:29:22;93055.78;;;12.35;54.31
10079;BME280;5078;42.544;22.966;2023-04-01T00:31:55;93059.25;;;12.35;54.65
10079;BME280;5078;42.544;22.966;2023-04-01T00:34:21;93058.84;;;12.25;55.08
10079;BME280;5078;42.544;22.966;2023-04-01T00:36:49;93053.56;;;12.12;55.91
10079;BME280;5078;42.544;22.966;2023-04-01T00:39:15;93032.31;;;11.92;56.17
10079;BME280;5078;42.544;22.966;2023-04-01T00:41:42;93038.22;;;12.00;55.19
10079;BME280;5078;42.544;22.966;2023-04-01T00:44:16;93037.81;;;12.17;54.32
10079;BME280;5078;42.544;22.966;2023-04-01T00:46:45;93037.41;;;12.13;53.88
10079;BME280;5078;42.544;22.966;2023-04-01T00:49:12;93039.88;;;12.21;53.90
10079;BME280;5078;42.544;22.966;2023-04-01T00:51:39;93036.16;;;12.22;53.67
10079;BME280;5078;42.544;22.966;2023-04-01T00:54:08;93012.88;;;11.98;53.93
10079;BME280;5078;42.544;22.966;2023-04-01T00:56:37;93008.41;;;11.92;54.45
10079;BME280;5078;42.544;22.966;2023-04-01T00:59:08;93009.41;;;12.04;54.10
10079;BME280;5078;42.544;22.966;2023-04-01T01:01:37;92996.34;;;11.96;54.35
10079;BME280;5078;42.544;22.966;2023-04-01T01:04:05;93003.88;;;12.12;53.76
10079;BME280;5078;42.544;22.966;2023-04-01T01:06:42;92998.38;;;12.07;53.62
10079;BME280;5078;42.544;22.966;2023-04-01T01:09:37;92998.34;;;12.20;53.09
10079;BME280;5078;42.544;22.966;2023-04-01T01:12:11;92996.31;;;12.22;53.09
10079;BME280;5078;42.544;22.966;2023-04-01T01:14:48;92997.31;;;12.41;52.47
10079;BME280;5078;42.544;22.966;2023-04-01T01:17:26;92995.47;;;12.42;52.37
10079;BME280;5078;42.544;22.966;2023-04-01T01:20:10;92996.06;;;12.50;52.04
10079;BME280;5078;42.544;22.966;2023-04-01T01:25:43;92991.50;;;12.64;52.88
10079;BME280;5078;42.544;22.966;2023-04-01T01:28:28;92996.38;;;12.74;53.19
10079;BME280;5078;42.544;22.966;2023-04-01T01:31:07;92993.09;;;12.79;53.58
10079;BME280;5078;42.544;22.966;2023-04-01T01:33:53;92988.16;;;12.82;53.67
10079;BME280;5078;42.544;22.966;2023-04-01T01:36:28;92980.16;;;12.89;52.21
10079;BME280;5078;42.544;22.966;2023-04-01T01:39:00;92983.91;;;12.74;51.95
10079;BME280;5078;42.544;22.966;2023-04-01T01:41:29;92970.03;;;12.66;51.92
10079;BME280;5078;42.544;22.966;2023-04-01T01:43:58;92907.44;;;12.05;52.96
10079;BME280;5078;42.544;22.966;2023-04-01T01:46:27;92970.03;;;12.66;52.45
10079;BME280;5078;42.544;22.966;2023-04-01T01:48:55;92970.91;;;12.53;51.55
10079;BME280;5078;42.544;22.966;2023-04-01T01:51:23;92961.69;;;12.49;51.93
10079;BME280;5078;42.544;22.966;2023-04-01T01:53:52;92956.38;;;12.42;52.62
10079;BME280;5078;42.544;22.966;2023-04-01T01:56:22;92959.66;;;12.44;52.62
10079;BME280;5078;42.544;22.966;2023-04-01T01:58:51;92964.16;;;12.50;52.34
10079;BME280;5078;42.544;22.966;2023-04-01T02:01:23;92966.19;;;12.48;52.44
10079;BME280;5078;42.544;22.966;2023-04-01T02:03:51;92957.97;;;12.63;52.46
10079;BME280;5078;42.544;22.966;2023-04-01T02:06:21;92967.94;;;12.68;51.97
10079;BME280;5078;42.544;22.966;2023-04-01T02:08:52;92964.97;;;12.44;52.96
10079;BME280;5078;42.544;22.966;2023-04-01T02:11:24;92945.16;;;12.40;53.11
10079;BME280;5078;42.544;22.966;2023-04-01T02:13:54;92961.66;;;12.62;53.14
10079;BME280;5078;42.544;22.966;2023-04-01T02:16:26;92946.34;;;12.51;53.34
10079;BME280;5078;42.544;22.966;2023-04-01T02:18:56;92935.50;;;12.52;53.12
10079;BME280;5078;42.544;22.966;2023-04-01T02:21:28;92949.00;;;12.51;53.29
10079;BME280;5078;42.544;22.966;2023-04-01T02:23:58;92957.38;;;12.55;53.33
10079;BME280;5078;42.544;22.966;2023-04-01T02:26:27;92958.44;;;12.40;53.52
10079;BME280;5078;42.544;22.966;2023-04-01T02:28:54;92961.75;;;12.22;54.56
10079;BME280;5078;42.544;22.966;2023-04-01T02:31:22;92958.28;;;12.22;54.97
10079;BME280;5078;42.544;22.966;2023-04-01T02:33:52;92962.56;;;12.23;55.05
10079;BME280;5078;42.544;22.966;2023-04-01T02:36:19;92963.41;;;12.23;55.10
10079;BME280;5078;42.544;22.966;2023-04-01T02:38:46;92963.78;;;12.34;55.18
10079;BME280;5078;42.544;22.966;2023-04-01T02:41:15;92973.56;;;12.46;54.66
10079;BME280;5078;42.544;22.966;2023-04-01T02:43:42;92972.53;;;12.54;54.21
10079;BME280;5078;42.544;22.966;2023-04-01T02:46:18;92984.34;;;12.65;54.30
10079;BME280;5078;42.544;22.966;2023-04-01T02:48:44;92976.34;;;12.71;54.20
10079;BME280;5078;42.544;22.966;2023-04-01T02:51:11;92979.28;;;12.50;56.16
10079;BME280;5078;42.544;22.966;2023-04-01T02:53:38;92992.31;;;12.71;55.45
10079;BME280;5078;42.544;22.966;2023-04-01T02:56:05;92984.41;;;12.45;55.85
10079;BME280;5078;42.544;22.966;2023-04-01T02:58:33;92979.47;;;12.55;55.50
10079;BME280;5078;42.544;22.966;2023-04-01T03:01:00;92980.97;;;12.24;56.74
10079;BME280;5078;42.544;22.966;2023-04-01T03:03:27;92965.88;;;12.18;57.78
10079;BME280;5078;42.544;22.966;2023-04-01T03:05:54;92964.28;;;11.91;57.36
10079;BME280;5078;42.544;22.966;2023-04-01T03:08:21;92950.75;;;11.65;58.52
10079;BME280;5078;42.544;22.966;2023-04-01T03:10:48;92951.59;;;11.59;59.48
10079;BME280;5078;42.544;22.966;2023-04-01T03:13:15;92922.59;;;11.51;60.28
10079;BME280;5078;42.544;22.966;2023-04-01T03:15:43;92905.22;;;11.42;61.32
10079;BME280;5078;42.544;22.966;2023-04-01T03:18:09;92895.63;;;11.48;60.13
10079;BME280;5078;42.544;22.966;2023-04-01T03:20:36;92896.22;;;11.63;58.94
10079;BME280;5078;42.544;22.966;2023-04-01T03:23:03;92887.47;;;11.69;57.51
10079;BME280;5078;42.544;22.966;2023-04-01T03:25:30;92892.97;;;11.74;57.46
10079;BME280;5078;42.544;22.966;2023-04-01T03:27:57;92902.75;;;11.80;58.11
10079;BME280;5078;42.544;22.966;2023-04-01T03:30:24;92902.97;;;11.72;59.64
10079;BME280;5078;42.544;22.966;2023-04-01T03:32:53;92890.88;;;11.83;59.20
10079;BME280;5078;42.544;22.966;2023-04-01T03:35:20;92896.81;;;11.85;57.59
10079;BME280;5078;42.544;22.966;2023-04-01T03:37:46;92895.81;;;11.86;57.54
10079;BME280;5078;42.544;22.966;2023-04-01T03:40:13;92887.84;;;11.99;56.35
10079;BME280;5078;42.544;22.966;2023-04-01T03:42:40;92889.50;;;11.94;56.17
10079;BME280;5078;42.544;22.966;2023-04-01T03:45:07;92890.28;;;12.01;56.91
10079;BME280;5078;42.544;22.966;2023-04-01T03:47:34;92875.78;;;11.83;57.96
10079;BME280;5078;42.544;22.966;2023-04-01T03:50:03;92872.94;;;11.98;58.06
10079;BME280;5078;42.544;22.966;2023-04-01T03:52:29;92858.44;;;11.87;58.19
10079;BME280;5078;42.544;22.966;2023-04-01T03:54:56;92862.25;;;12.05;57.12
10079;BME280;5078;42.544;22.966;2023-04-01T03:57:23;92858.38;;;12.14;56.26
10079;BME280;5078;42.544;22.966;2023-04-01T03:59:50;92853.66;;;12.16;56.23
10079;BME280;5078;42.544;22.966;2023-04-01T04:02:17;92851.81;;;12.10;56.52
10079;BME280;5078;42.544;22.966;2023-04-01T04:04:43;92843.03;;;12.16;56.34
10079;BME280;5078;42.544;22.966;2023-04-01T04:07:13;92851.00;;;12.16;56.36
10079;BME280;5078;42.544;22.966;2023-04-01T04:09:40;92842.78;;;12.24;55.83
10079;BME280;5078;42.544;22.966;2023-04-01T04:12:06;92841.97;;;12.24;55.59
10079;BME280;5078;42.544;22.966;2023-04-01T04:14:33;92840.91;;;12.32;55.32
10079;BME280;5078;42.544;22.966;2023-04-01T04:17:00;92844.78;;;12.36;55.66
10079;BME280;5078;42.544;22.966;2023-04-01T04:19:30;92839.31;;;12.30;55.09
10079;BME280;5078;42.544;22.966;2023-04-01T04:21:59;92837.28;;;12.26;54.82
10079;BME280;5078;42.544;22.966;2023-04-01T04:24:28;92823.53;;;12.36;54.71
10079;BME280;5078;42.544;22.966;2023-04-01T04:26:54;92820.63;;;12.37;54.68
10079;BME280;5078;42.544;22.966;2023-04-01T04:29:21;92817.00;;;12.32;54.39
10079;BME280;5078;42.544;22.966;2023-04-01T04:31:48;92816.47;;;12.16;55.44
10079;BME280;5078;42.544;22.966;2023-04-01T04:34:15;92804.84;;;12.04;55.90
10079;BME280;5078;42.544;22.966;2023-04-01T04:36:44;92800.59;;;11.96;56.97
10079;BME280;5078;42.544;22.966;2023-04-01T04:39:11;92788.38;;;11.89;57.64
10079;BME280;5078;42.544;22.966;2023-04-01T04:41:39;92784.94;;;11.61;58.89
10079;BME280;5078;42.544;22.966;2023-04-01T04:44:06;92790.25;;;11.61;58.88
10079;BME280;5078;42.544;22.966;2023-04-01T04:46:33;92790.69;;;11.58;58.92
10079;BME280;5078;42.544;22.966;2023-04-01T04:48:59;92778.84;;;11.48;59.26
10079;BME280;5078;42.544;22.966;2023-04-01T04:51:26;92772.72;;;11.54;58.88
10079;BME280;5078;42.544;22.966;2023-04-01T04:53:53;92783.94;;;11.56;58.21
10079;BME280;5078;42.544;22.966;2023-04-01T04:56:20;92786.59;;;11.56;58.60
10079;BME280;5078;42.544;22.966;2023-04-01T04:58:49;92780.88;;;11.45;59.02
10079;BME280;5078;42.544;22.966;2023-04-01T05:01:16;92780.94;;;11.26;60.38
10079;BME280;5078;42.544;22.966;2023-04-01T05:03:44;92770.13;;;11.27;60.55
10079;BME280;5078;42.544;22.966;2023-04-01T05:06:13;92765.41;;;11.36;60.21
10079;BME280;5078;42.544;22.966;2023-04-01T05:08:41;92764.00;;;11.33;60.31
10079;BME280;5078;42.544;22.966;2023-04-01T05:11:10;92761.53;;;11.38;60.31
10079;BME280;5078;42.544;22.966;2023-04-01T05:13:38;92761.31;;;11.47;59.59
10079;BME280;5078;42.544;22.966;2023-04-01T05:16:08;92757.22;;;11.44;60.63
10079;BME280;5078;42.544;22.966;2023-04-01T05:18:35;92760.69;;;11.51;60.90
10079;BME280;5078;42.544;22.966;2023-04-01T05:21:02;92757.09;;;11.84;59.78
10079;BME280;5078;42.544;22.966;2023-04-01T05:23:31;92765.22;;;12.41;58.04
10079;BME280;5078;42.544;22.966;2023-04-01T05:25:58;92761.38;;;12.68;56.52
10079;BME280;5078;42.544;22.966;2023-04-01T05:28:24;92759.81;;;12.86;55.66
10079;BME280;5078;42.544;22.966;2023-04-01T05:30:51;92753.22;;;13.38;54.35
10079;BME280;5078;42.544;22.966;2023-04-01T05:33:19;92739.41;;;13.48;53.29
10079;BME280;5078;42.544;22.966;2023-04-01T05:35:46;92737.03;;;13.58;52.62
10079;BME280;5078;42.544;22.966;2023-04-01T05:38:13;92727.00;;;14.09;51.12
10079;BME280;5078;42.544;22.966;2023-04-01T05:40:40;92716.16;;;14.53;50.32
10079;BME280;5078;42.544;22.966;2023-04-01T05:43:06;92713.47;;;14.95;48.66
10079;BME280;5078;42.544;22.966;2023-04-01T05:45:33;92711.16;;;15.34;46.84
10079;BME280;5078;42.544;22.966;2023-04-01T05:48:00;92706.84;;;15.68;45.87
10079;BME280;5078;42.544;22.966;2023-04-01T05:50:29;92713.47;;;16.17;44.16
10079;BME280;5078;42.544;22.966;2023-04-01T05:52:55;92709.66;;;16.13;44.01
10079;BME280;5078;42.544;22.966;2023-04-01T05:55:22;92683.38;;;16.10;43.35
10079;BME280;5078;42.544;22.966;2023-04-01T05:57:49;92724.09;;;16.29;42.08
10079;BME280;5078;42.544;22.966;2023-04-01T06:00:16;92716.78;;;16.25;41.96
10079;BME280;5078;42.544;22.966;2023-04-01T06:02:45;92700.44;;;16.21;43.19
10079;BME280;5078;42.544;22.966;2023-04-01T06:05:14;92708.88;;;15.89;44.04
10079;BME280;5078;42.544;22.966;2023-04-01T06:07:45;92701.41;;;15.51;44.96
10079;BME280;5078;42.544;22.966;2023-04-01T06:10:16;92712.78;;;15.58;45.00
10079;BME280;5078;42.544;22.966;2023-04-01T06:12:51;92711.25;;;15.62;44.97
10079;BME280;5078;42.544;22.966;2023-04-01T06:15:34;92715.59;;;15.28;45.38
10079;BME280;5078;42.544;22.966;2023-04-01T06:21:08;92698.75;;;15.16;45.29
10079;BME280;5078;42.544;22.966;2023-04-01T06:23:52;92693.50;;;14.97;46.60
10079;BME280;5078;42.544;22.966;2023-04-01T06:26:29;92687.13;;;15.22;45.87
10079;BME280;5078;42.544;22.966;2023-04-01T06:32:15;92679.00;;;15.40;45.43
10079;BME280;5078;42.544;22.966;2023-04-01T06:35:20;92688.16;;;15.44;45.13
10079;BME280;5078;42.544;22.966;2023-04-01T06:38:21;92673.66;;;15.40;45.27
10079;BME280;5078;42.544;22.966;2023-04-01T06:41:07;92682.84;;;15.32;44.66
10079;BME280;5078;42.544;22.966;2023-04-01T06:43:49;92679.00;;;15.05;44.59
10079;BME280;5078;42.544;22.966;2023-04-01T06:46:25;92689.00;;;14.98;45.08
10079;BME280;5078;42.544;22.966;2023-04-01T06:49:12;92692.59;;;15.03;45.11
10079;BME280;5078;42.544;22.966;2023-04-01T06:51:50;92678.66;;;14.89;45.04
10079;BME280;5078;42.544;22.966;2023-04-01T06:54:24;92682.47;;;14.82;44.90
10079;BME280;5078;42.544;22.966;2023-04-01T06:56:58;92673.75;;;14.75;44.61
10079;BME280;5078;42.544;22.966;2023-04-01T06:59:28;92666.81;;;14.74;44.13
10079;BME280;5078;42.544;22.966;2023-04-01T07:01:59;92669.13;;;14.82;43.98
10079;BME280;5078;42.544;22.966;2023-04-01T07:04:30;92676.09;;;14.71;44.79
10079;BME280;5078;42.544;22.966;2023-04-01T07:06:59;92671.22;;;14.80;45.25
10079;BME280;5078;42.544;22.966;2023-04-01T07:09:32;92680.97;;;14.86;45.04
10079;BME280;5078;42.544;22.966;2023-04-01T07:12:04;92662.66;;;14.78;45.40
10079;BME280;5078;42.544;22.966;2023-04-01T07:14:35;92662.78;;;14.83;45.42
10079;BME280;5078;42.544;22.966;2023-04-01T07:17:06;92666.84;;;14.85;44.47
10079;BME280;5078;42.544;22.966;2023-04-01T07:19:41;92666.59;;;14.75;44.93
10079;BME280;5078;42.544;22.966;2023-04-01T07:22:16;92673.19;;;14.73;44.90
10079;BME280;5078;42.544;22.966;2023-04-01T07:24:48;92665.31;;;14.78;45.15
10079;BME280;5078;42.544;22.966;2023-04-01T07:27:16;92663.66;;;14.53;46.25
10079;BME280;5078;42.544;22.966;2023-04-01T07:29:43;92660.88;;;14.72;46.17
10079;BME280;5078;42.544;22.966;2023-04-01T07:32:19;92666.13;;;14.78;46.15
10079;BME280;5078;42.544;22.966;2023-04-01T07:35:04;92661.81;;;14.65;46.47
10079;BME280;5078;42.544;22.966;2023-04-01T07:37:39;92653.78;;;14.54;47.39
10079;BME280;5078;42.544;22.966;2023-04-01T07:40:18;92661.91;;;14.59;48.19
10079;BME280;5078;42.544;22.966;2023-04-01T07:43:07;92661.81;;;14.65;48.06
10079;BME280;5078;42.544;22.966;2023-04-01T07:45:41;92656.41;;;14.42;48.26
10079;BME280;5078;42.544;22.966;2023-04-01T07:48:20;92655.81;;;14.40;47.33
10079;BME280;5078;42.544;22.966;2023-04-01T07:50:57;92640.69;;;14.22;47.70
10079;BME280;5078;42.544;22.966;2023-04-01T07:53:33;92638.38;;;14.14;48.35
10079;BME280;5078;42.544;22.966;2023-04-01T07:56:06;92628.75;;;14.13;48.47
10079;BME280;5078;42.544;22.966;2023-04-01T07:58:45;92630.03;;;14.22;48.48
10079;BME280;5078;42.544;22.966;2023-04-01T08:01:20;92613.91;;;14.17;47.58
10079;BME280;5078;42.544;22.966;2023-04-01T08:04:13;92611.28;;;14.29;47.88
10079;BME280;5078;42.544;22.966;2023-04-01T08:06:47;92613.84;;;14.35;48.12
10079;BME280;5078;42.544;22.966;2023-04-01T08:09:22;92602.16;;;14.36;47.78
10079;BME280;5078;42.544;22.966;2023-04-01T08:12:02;92599.25;;;14.38;47.88
10079;BME280;5078;42.544;22.966;2023-04-01T08:14:39;92599.50;;;14.48;47.05
10079;BME280;5078;42.544;22.966;2023-04-01T08:17:13;92593.38;;;14.71;46.63
10079;BME280;5078;42.544;22.966;2023-04-01T08:19:54;92578.66;;;14.80;46.23
10079;BME280;5078;42.544;22.966;2023-04-01T08:22:27;92577.34;;;15.18;45.59
10079;BME280;5078;42.544;22.966;2023-04-01T08:24:56;92561.81;;;15.44;44.62
10079;BME280;5078;42.544;22.966;2023-04-01T08:27:33;92569.06;;;15.72;43.65
10079;BME280;5078;42.544;22.966;2023-04-01T08:30:06;92575.50;;;15.88;43.28
10079;BME280;5078;42.544;22.966;2023-04-01T08:32:44;92573.28;;;15.85;44.06
10079;BME280;5078;42.544;22.966;2023-04-01T08:35:18;92576.06;;;15.90;43.74
10079;BME280;5078;42.544;22.966;2023-04-01T08:37:48;92570.47;;;15.91;42.79
10079;BME280;5078;42.544;22.966;2023-04-01T08:40:33;92572.91;;;15.93;42.76
10079;BME280;5078;42.544;22.966;2023-04-01T08:43:08;92559.59;;;15.81;42.10
10079;BME280;5078;42.544;22.966;2023-04-01T08:48:50;92558.22;;;15.79;41.84
10079;BME280;5078;42.544;22.966;2023-04-01T08:54:39;92550.69;;;15.92;42.79
10079;BME280;5078;42.544;22.966;2023-04-01T08:57:15;92534.16;;;15.79;42.57
10079;BME280;5078;42.544;22.966;2023-04-01T08:59:56;92527.22;;;15.78;41.86
10079;BME280;5078;42.544;22.966;2023-04-01T09:02:51;92536.72;;;15.85;42.24
10079;BME280;5078;42.544;22.966;2023-04-01T09:05:42;92527.44;;;15.76;42.41
10079;BME280;5078;42.544;22.966;2023-04-01T09:08:28;92530.38;;;15.91;42.16
10079;BME280;5078;42.544;22.966;2023-04-01T09:11:07;92530.91;;;16.05;42.05
10079;BME280;5078;42.544;22.966;2023-04-01T09:13:51;92522.25;;;16.15;40.79
10079;BME280;5078;42.544;22.966;2023-04-01T09:16:42;92520.19;;;16.22;40.57
10079;BME280;5078;42.544;22.966;2023-04-01T09:19:20;92511.78;;;16.13;39.82
10079;BME280;5078;42.544;22.966;2023-04-01T09:22:06;92509.09;;;16.13;39.98
10079;BME280;5078;42.544;22.966;2023-04-01T09:24:48;92504.16;;;16.22;40.65
10079;BME280;5078;42.544;22.966;2023-04-01T09:27:26;92498.31;;;16.08;41.70
10079;BME280;5078;42.544;22.966;2023-04-01T09:30:28;92492.63;;;16.22;41.46
10079;BME280;5078;42.544;22.966;2023-04-01T09:33:32;92495.59;;;16.20;42.23
10079;BME280;5078;42.544;22.966;2023-04-01T09:36:15;92480.94;;;16.45;41.94
10079;BME280;5078;42.544;22.966;2023-04-01T09:38:55;92479.56;;;16.42;42.49
10079;BME280;5078;42.544;22.966;2023-04-01T09:41:29;92444.84;;;16.08;43.14
10079;BME280;5078;42.544;22.966;2023-04-01T09:44:05;92482.59;;;16.29;43.71
10079;BME280;5078;42.544;22.966;2023-04-01T09:46:53;92477.41;;;16.22;43.88
10079;BME280;5078;42.544;22.966;2023-04-01T09:49:46;92464.59;;;16.24;43.83
10079;BME280;5078;42.544;22.966;2023-04-01T09:52:27;92466.25;;;16.25;44.08
10079;BME280;5078;42.544;22.966;2023-04-01T09:55:06;92460.75;;;16.15;44.62
10079;BME280;5078;42.544;22.966;2023-04-01T10:00:55;92449.34;;;16.25;44.73
10079;BME280;5078;42.544;22.966;2023-04-01T10:07:16;92430.91;;;16.06;45.67
10079;BME280;5078;42.544;22.966;2023-04-01T10:10:17;92415.53;;;16.13;45.19
10079;BME280;5078;42.544;22.966;2023-04-01T10:16:23;92410.28;;;16.41;44.28
10079;BME280;5078;42.544;22.966;2023-04-01T10:22:29;92402.28;;;16.63;43.78
10079;BME280;5078;42.544;22.966;2023-04-01T10:31:19;92379.78;;;16.80;41.71
10079;BME280;5078;42.544;22.966;2023-04-01T10:34:10;92387.00;;;16.80;42.06
10079;BME280;5078;42.544;22.966;2023-04-01T10:36:52;92388.13;;;16.67;42.40
10079;BME280;5078;42.544;22.966;2023-04-01T10:39:55;92382.53;;;16.69;42.30
10079;BME280;5078;42.544;22.966;2023-04-01T10:48:53;92359.06;;;16.76;42.54
10079;BME280;5078;42.544;22.966;2023-04-01T10:54:49;92357.63;;;16.85;42.13
10079;BME280;5078;42.544;22.966;2023-04-01T10:57:44;92357.81;;;16.78;42.36
10079;BME280;5078;42.544;22.966;2023-04-01T11:00:47;92364.44;;;16.76;42.06
10079;BME280;5078;42.544;22.966;2023-04-01T11:06:58;92385.53;;;16.50;44.07
10079;BME280;5078;42.544;22.966;2023-04-01T11:13:03;92402.56;;;16.05;45.75
10079;BME280;5078;42.544;22.966;2023-04-01T11:18:59;92460.81;;;15.86;47.54
10079;BME280;5078;42.544;22.966;2023-04-01T11:21:46;92488.91;;;15.43;54.71
10079;BME280;5078;42.544;22.966;2023-04-01T11:27:31;92575.22;;;13.72;92.96
10079;BME280;5078;42.544;22.966;2023-04-01T11:30:17;92592.31;;;13.16;100.00
10079;BME280;5078;42.544;22.966;2023-04-01T11:32:54;92586.53;;;12.82;100.00
10079;BME280;5078;42.544;22.966;2023-04-01T11:35:55;92599.66;;;12.59;100.00
10079;BME280;5078;42.544;22.966;2023-04-01T11:38:49;92600.47;;;12.34;100.00
10079;BME280;5078;42.544;22.966;2023-04-01T11:41:27;92607.72;;;12.20;100.00
10079;BME280;5078;42.544;22.966;2023-04-01T11:44:11;92604.66;;;11.98;100.00
10079;BME280;5078;42.544;22.966;2023-04-01T11:46:51;92598.47;;;12.04;100.00
10079;BME280;5078;42.544;22.966;2023-04-01T11:49:42;92605.59;;;12.11;100.00
10079;BME280;5078;42.544;22.966;2023-04-01T11:55:16;92604.44;;;12.25;100.00
10079;BME280;5078;42.544;22.966;2023-04-01T11:58:06;92615.50;;;12.47;100.00
10079;BME280;5078;42.544;22.966;2023-04-01T12:00:58;92604.47;;;12.68;100.00
10079;BME280;5078;42.544;22.966;2023-04-01T12:03:50;92596.34;;;13.00;100.00
10079;BME280;5078;42.544;22.966;2023-04-01T12:06:39;92593.78;;;12.93;100.00
10079;BME280;5078;42.544;22.966;2023-04-01T12:09:12;92600.34;;;13.09;100.00
10079;BME280;5078;42.544;22.966;2023-04-01T12:11:50;92606.34;;;13.05;100.00
10079;BME280;5078;42.544;22.966;2023-04-01T12:14:25;92622.50;;;13.28;100.00
10079;BME280;5078;42.544;22.966;2023-04-01T12:17:03;92648.06;;;13.29;100.00
10079;BME280;5078;42.544;22.966;2023-04-01T12:19:43;92648.47;;;13.26;100.00
10079;BME280;5078;42.544;22.966;2023-04-01T12:22:33;92657.28;;;13.08;100.00
10079;BME280;5078;42.544;22.966;2023-04-01T12:25:31;92638.75;;;12.95;100.00
10079;BME280;5078;42.544;22.966;2023-04-01T12:28:10;92647.88;;;12.62;100.00
10079;BME280;5078;42.544;22.966;2023-04-01T12:30:58;92659.06;;;12.46;100.00
10079;BME280;5078;42.544;22.966;2023-04-01T12:33:42;92639.97;;;12.30;100.00
10079;BME280;5078;42.544;22.966;2023-04-01T12:36:20;92624.34;;;12.41;100.00
10079;BME280;5078;42.544;22.966;2023-04-01T12:39:11;92642.56;;;12.62;100.00
10079;BME280;5078;42.544;22.966;2023-04-01T12:41:47;92637.66;;;12.41;100.00
10079;BME280;5078;42.544;22.966;2023-04-01T12:44:37;92615.53;;;12.15;100.00
10079;BME280;5078;42.544;22.966;2023-04-01T12:50:34;92584.50;;;12.41;100.00
10079;BME280;5078;42.544;22.966;2023-04-01T12:53:27;92560.78;;;12.14;100.00
10079;BME280;5078;42.544;22.966;2023-04-01T12:55:59;92583.91;;;12.57;100.00
10079;BME280;5078;42.544;22.966;2023-04-01T12:58:53;92572.91;;;12.72;100.00
10079;BME280;5078;42.544;22.966;2023-04-01T13:01:34;92570.28;;;12.90;100.00
10079;BME280;5078;42.544;22.966;2023-04-01T13:10:06;92562.94;;;13.23;100.00
10079;BME280;5078;42.544;22.966;2023-04-01T13:15:52;92549.97;;;13.45;100.00
10079;BME280;5078;42.544;22.966;2023-04-01T13:18:28;92552.75;;;13.68;100.00
10079;BME280;5078;42.544;22.966;2023-04-01T13:21:06;92546.53;;;13.86;100.00
10079;BME280;5078;42.544;22.966;2023-04-01T13:23:51;92537.75;;;13.97;100.00
10079;BME280;5078;42.544;22.966;2023-04-01T13:26:26;92521.31;;;14.00;100.00
10079;BME280;5078;42.544;22.966;2023-04-01T13:28:59;92523.75;;;14.02;100.00
10079;BME280;5078;42.544;22.966;2023-04-01T13:31:38;92527.97;;;13.79;100.00
10079;BME280;5078;42.544;22.966;2023-04-01T13:37:13;92489.34;;;14.12;100.00
10079;BME280;5078;42.544;22.966;2023-04-01T13:42:37;92510.34;;;14.56;96.81
10079;BME280;5078;42.544;22.966;2023-04-01T13:45:13;92506.16;;;14.48;97.27
10079;BME280;5078;42.544;22.966;2023-04-01T13:47:55;92496.00;;;13.79;100.00
10079;BME280;5078;42.544;22.966;2023-04-01T13:50:52;92491.84;;;13.72;100.00
10079;BME280;5078;42.544;22.966;2023-04-01T13:56:42;92484.09;;;13.82;100.00
10079;BME280;5078;42.544;22.966;2023-04-01T13:59:49;92485.28;;;13.98;100.00
10079;BME280;5078;42.544;22.966;2023-04-01T14:05:32;92480.41;;;14.07;100.00
10079;BME280;5078;42.544;22.966;2023-04-01T14:08:09;92488.75;;;13.98;100.00
10079;BME280;5078;42.544;22.966;2023-04-01T14:10:42;92484.00;;;14.00;100.00
10079;BME280;5078;42.544;22.966;2023-04-01T14:13:15;92483.50;;;13.80;100.00
10079;BME280;5078;42.544;22.966;2023-04-01T14:16:14;92487.59;;;13.94;100.00
10079;BME280;5078;42.544;22.966;2023-04-01T14:19:04;92469.31;;;13.98;100.00
10079;BME280;5078;42.544;22.966;2023-04-01T14:21:38;92401.25;;;13.36;100.00
10079;BME280;5078;42.544;22.966;2023-04-01T14:24:27;92464.88;;;13.92;100.00
10079;BME280;5078;42.544;22.966;2023-04-01T14:27:19;92453.88;;;13.88;100.00
10079;BME280;5078;42.544;22.966;2023-04-01T14:29:58;92446.94;;;13.75;100.00
10079;BME280;5078;42.544;22.966;2023-04-01T14:32:35;92444.59;;;13.79;100.00
10079;BME280;5078;42.544;22.966;2023-04-01T14:35:21;92430.47;;;13.67;100.00
10079;BME280;5078;42.544;22.966;2023-04-01T14:38:25;92432.91;;;13.68;100.00
10079;BME280;5078;42.544;22.966;2023-04-01T14:40:56;92432.22;;;13.85;100.00
10079;BME280;5078;42.544;22.966;2023-04-01T14:43:48;92438.13;;;13.98;100.00
10079;BME280;5078;42.544;22.966;2023-04-01T14:49:20;92436.72;;;14.08;100.00
10079;BME280;5078;42.544;22.966;2023-04-01T14:51:49;92435.81;;;14.02;100.00
10079;BME280;5078;42.544;22.966;2023-04-01T14:54:20;92421.19;;;14.05;100.00
10079;BME280;5078;42.544;22.966;2023-04-01T14:56:49;92423.28;;;14.26;100.00
10079;BME280;5078;42.544;22.966;2023-04-01T14:59:26;92428.94;;;14.41;100.00
10079;BME280;5078;42.544;22.966;2023-04-01T15:01:58;92432.91;;;14.27;100.00
10079;BME280;5078;42.544;22.966;2023-04-01T15:04:53;92435.44;;;14.34;100.00
10079;BME280;5078;42.544;22.966;2023-04-01T15:07:34;92422.22;;;14.39;100.00
10079;BME280;5078;42.544;22.966;2023-04-01T15:10:10;92437.97;;;14.64;96.97